Time;durP1;ratioP1;P1;durP2;ratioP2;P2;SDS_P1;SDS_P2;PMS_P1;PMS_P2;Temp;Humidity;BMP_temperature;BMP_pressure;BME280_temperature;BME280_humidity;BME280_pressure;Samples;Min_cycle;Max_cycle;Signal;HPM_P1;HPM_P2
2022/11/14 00:01:21;;;;;;;55.15;29.52;;;6.30;99.90;;;;;;4891861;29;20044;-85
2022/11/14 00:04:06;;;;;;;46.75;27.00;;;6.40;99.90;;;;;;4875859;29;20041;-85
2022/11/14 00:06:32;;;;;;;43.87;27.60;;;6.30;99.90;;;;;;4878304;29;20139;-86
2022/11/14 00:08:59;;;;;;;46.38;28.40;;;6.40;99.90;;;;;;4875633;29;20387;-84
2022/11/14 00:11:24;;;;;;;45.42;28.15;;;6.40;99.90;;;;;;4874834;29;20444;-86
2022/11/14 00:14:05;;;;;;;48.67;27.75;;;6.60;99.90;;;;;;4881299;29;20140;-85
2022/11/14 00:16:31;;;;;;;42.70;28.33;;;6.40;99.90;;;;;;4892637;29;20052;-84
2022/11/14 00:18:56;;;;;;;44.63;27.85;;;6.40;99.90;;;;;;4876790;29;20522;-85
2022/11/14 00:21:42;;;;;;;46.45;30.55;;;6.40;99.90;;;;;;4876956;29;20753;-86
2022/11/14 00:24:07;;;;;;;43.83;28.47;;;6.50;99.90;;;;;;4873917;29;20056;-86
2022/11/14 00:26:33;;;;;;;47.28;28.98;;;6.50;99.90;;;;;;4874955;29;20036;-85
2022/11/14 00:28:59;;;;;;;40.08;27.17;;;6.50;99.90;;;;;;4875889;29;20036;-86
2022/11/14 00:31:38;;;;;;;42.00;27.92;;;6.50;99.90;;;;;;4879047;29;20060;-85
2022/11/14 00:34:03;;;;;;;40.17;28.25;;;6.60;99.90;;;;;;4861354;29;20048;-86
2022/11/14 00:36:29;;;;;;;38.17;27.58;;;7.70;99.90;;;;;;4891073;29;20052;-85
2022/11/14 00:38:55;;;;;;;44.55;28.50;;;6.60;99.90;;;;;;4879170;29;20099;-85
2022/11/14 00:41:40;;;;;;;39.28;27.60;;;6.50;99.90;;;;;;4877480;29;20518;-86
2022/11/14 00:44:06;;;;;;;41.20;28.47;;;6.60;99.90;;;;;;4891793;29;20392;-85
2022/11/14 00:49:24;;;;;;;41.45;29.25;;;6.60;99.90;;;;;;4891008;29;20085;-82
2022/11/14 00:51:49;;;;;;;37.78;27.25;;;6.60;99.90;;;;;;4890478;29;20040;-86
2022/11/14 00:54:30;;;;;;;40.28;28.48;;;6.60;99.90;;;;;;4884111;29;20681;-84
2022/11/14 00:56:56;;;;;;;39.75;28.92;;;7.60;99.90;;;;;;4887385;29;20511;-85
2022/11/14 00:59:21;;;;;;;39.47;29.15;;;6.60;99.90;;;;;;4876065;29;20129;-86
2022/11/14 01:01:47;;;;;;;40.25;30.48;;;6.60;99.90;;;;;;4885293;29;20063;-86
2022/11/14 01:04:25;;;;;;;40.03;29.73;;;6.70;99.90;;;;;;4892281;29;20668;-85
2022/11/14 01:06:51;;;;;;;40.10;29.60;;;6.60;99.90;;;;;;4870967;29;20040;-86
2022/11/14 01:09:17;;;;;;;41.22;29.73;;;7.10;99.90;;;;;;4876831;29;20068;-86
2022/11/14 01:11:42;;;;;;;38.70;28.40;;;6.70;99.90;;;;;;4890694;29;20075;-85
2022/11/14 01:14:13;;;;;;;39.05;30.13;;;6.70;99.90;;;;;;4869611;29;20040;-86
2022/11/14 01:16:48;;;;;;;41.65;29.90;;;6.70;99.90;;;;;;4877999;29;20072;-83
2022/11/14 01:19:13;;;;;;;42.95;31.45;;;6.70;99.90;;;;;;4880280;29;20551;-86
2022/11/14 01:21:39;;;;;;;44.80;32.78;;;6.70;99.90;;;;;;4889996;29;20156;-84
2022/11/14 01:24:22;;;;;;;45.17;31.70;;;6.70;99.90;;;;;;4876919;29;20068;-86
2022/11/14 01:26:48;;;;;;;44.42;31.00;;;6.60;99.90;;;;;;4877776;29;20164;-86
2022/11/14 01:29:14;;;;;;;43.85;31.83;;;6.60;99.90;;;;;;4875140;29;20107;-85
2022/11/14 01:31:39;;;;;;;44.45;33.95;;;6.60;99.90;;;;;;4874716;29;20139;-86
2022/11/14 01:34:17;;;;;;;45.92;33.13;;;6.60;99.90;;;;;;4889649;29;20535;-85
2022/11/14 01:36:43;;;;;;;47.17;36.15;;;6.60;99.90;;;;;;4875804;29;20049;-86
2022/11/14 01:39:09;;;;;;;49.13;34.05;;;6.70;99.90;;;;;;4881635;29;20040;-83
2022/11/14 01:41:34;;;;;;;49.22;35.70;;;6.60;99.90;;;;;;4892689;29;20048;-84
2022/11/14 01:44:00;;;;;;;46.80;33.45;;;6.50;99.90;;;;;;4872129;29;20053;-86
2022/11/14 01:46:37;;;;;;;45.20;33.00;;;6.50;99.90;;;;;;4880993;29;20044;-86
2022/11/14 01:49:35;;;;;;;49.55;34.17;;;6.70;99.90;;;;;;4874444;29;20044;-85
2022/11/14 01:52:02;;;;;;;46.20;33.42;;;6.60;99.90;;;;;;4890727;29;20036;-86
2022/11/14 01:54:33;;;;;;;44.42;33.70;;;6.50;99.90;;;;;;4879309;29;20048;-86
2022/11/14 01:57:24;;;;;;;48.97;33.67;;;6.50;99.90;;;;;;4891817;29;20048;-86
2022/11/14 02:00:14;;;;;;;46.92;34.05;;;6.50;99.90;;;;;;4905850;29;20041;-84
2022/11/14 02:02:40;;;;;;;46.92;35.28;;;6.50;99.90;;;;;;4892320;29;20055;-85
2022/11/14 02:05:26;;;;;;;53.72;36.85;;;6.50;99.90;;;;;;4893853;29;20040;-84
2022/11/14 02:07:52;;;;;;;54.20;38.00;;;6.50;99.90;;;;;;4894439;29;20040;-86
2022/11/14 02:10:20;;;;;;;51.35;38.05;;;6.50;99.90;;;;;;4880850;29;20041;-86
2022/11/14 02:13:03;;;;;;;54.90;39.80;;;6.40;99.90;;;;;;4888837;29;20041;-86
2022/11/14 02:15:29;;;;;;;55.78;39.08;;;6.40;99.90;;;;;;4894833;29;20092;-86
2022/11/14 02:17:55;;;;;;;56.65;38.60;;;6.70;99.90;;;;;;4878167;29;20037;-85
2022/11/14 02:20:42;;;;;;;57.20;39.80;;;6.40;99.90;;;;;;4878976;29;20044;-85
2022/11/14 02:23:09;;;;;;;56.60;38.72;;;6.30;99.90;;;;;;4892929;29;20045;-85
2022/11/14 02:25:35;;;;;;;56.15;40.50;;;6.40;99.90;;;;;;4880533;29;20068;-86
2022/11/14 02:28:20;;;;;;;58.00;39.33;;;6.30;99.90;;;;;;4879897;29;20068;-85
2022/11/14 02:30:46;;;;;;;56.90;40.97;;;6.30;99.90;;;;;;4892093;29;20047;-85
2022/11/14 02:33:29;;;;;;;59.85;41.70;;;6.30;99.90;;;;;;4877756;29;20131;-86
2022/11/14 02:35:54;;;;;;;59.03;41.75;;;6.30;99.90;;;;;;4876214;29;20037;-85
2022/11/14 02:38:20;;;;;;;57.10;42.63;;;6.40;99.90;;;;;;4897159;29;20966;-85
2022/11/14 02:40:46;;;;;;;63.38;42.15;;;6.30;99.90;;;;;;4896407;29;20065;-86
2022/11/14 02:43:30;;;;;;;62.35;42.28;;;6.30;99.90;;;;;;4880751;29;20096;-83
2022/11/14 02:45:55;;;;;;;61.13;42.42;;;6.40;99.90;;;;;;4893575;29;20042;-85
2022/11/14 02:48:21;;;;;;;63.25;43.13;;;6.30;99.90;;;;;;4891295;29;20040;-82
2022/11/14 02:50:49;;;;;;;58.15;39.97;;;6.30;99.90;;;;;;4893986;29;20037;-84
2022/11/14 02:53:25;;;;;;;60.03;43.33;;;6.30;99.90;;;;;;4895025;29;20627;-86
2022/11/14 02:55:51;;;;;;;64.35;43.42;;;6.30;99.90;;;;;;4879424;29;20045;-86
2022/11/14 02:58:16;;;;;;;64.35;43.08;;;6.30;99.90;;;;;;4882531;29;20047;-86
2022/11/14 03:00:42;;;;;;;65.30;43.75;;;6.30;99.90;;;;;;4894978;29;20045;-85
2022/11/14 03:03:31;;;;;;;62.63;41.95;;;6.30;99.90;;;;;;4893943;29;20052;-86
2022/11/14 03:06:00;;;;;;;64.68;42.70;;;6.30;99.90;;;;;;4891900;29;20071;-84
2022/11/14 03:08:38;;;;;;;61.08;42.20;;;6.30;99.90;;;;;;4882466;29;20127;-86
2022/11/14 03:11:06;;;;;;;67.43;45.00;;;6.30;99.90;;;;;;4878198;29;20056;-86
2022/11/14 03:13:31;;;;;;;62.22;41.65;;;6.30;99.90;;;;;;4891772;29;20532;-86
2022/11/14 03:15:57;;;;;;;71.60;46.40;;;6.50;99.90;;;;;;4892012;29;20090;-85
2022/11/14 03:18:38;;;;;;;71.45;44.78;;;6.30;99.90;;;;;;4882297;29;20189;-85
2022/11/14 03:21:08;;;;;;;73.80;44.60;;;6.30;99.90;;;;;;4882245;29;20045;-85
2022/11/14 03:23:34;;;;;;;66.32;44.05;;;6.30;99.90;;;;;;4873554;29;20047;-85
2022/11/14 03:26:21;;;;;;;64.68;42.95;;;6.30;99.90;;;;;;4890859;29;20079;-85
2022/11/14 03:28:47;;;;;;;70.05;43.72;;;6.30;99.90;;;;;;4876884;29;20033;-84
2022/11/14 03:31:14;;;;;;;67.63;45.72;;;6.30;99.90;;;;;;4878131;29;20386;-86
2022/11/14 03:33:49;;;;;;;73.18;46.15;;;6.30;99.90;;;;;;4878677;29;20486;-85
2022/11/14 03:36:15;;;;;;;67.78;44.28;;;6.30;99.90;;;;;;4887839;29;20037;-85
2022/11/14 03:38:42;;;;;;;68.97;44.95;;;6.30;99.90;;;;;;4892158;29;20695;-85
2022/11/14 03:41:08;;;;;;;72.22;45.85;;;6.30;99.90;;;;;;4889479;29;20040;-86
2022/11/14 03:43:34;;;;;;;73.03;47.63;;;6.30;99.90;;;;;;4878214;29;20071;-82
2022/11/14 03:46:08;;;;;;;66.28;45.40;;;6.30;99.90;;;;;;4893153;29;20119;-83
2022/11/14 03:48:33;;;;;;;66.75;43.92;;;6.30;99.90;;;;;;4879138;29;20044;-85
2022/11/14 03:51:01;;;;;;;65.05;44.83;;;6.30;99.90;;;;;;4877043;29;20040;-85
2022/11/14 03:53:27;;;;;;;66.25;44.13;;;6.30;99.90;;;;;;4889175;29;20041;-85
2022/11/14 03:55:53;;;;;;;66.30;44.35;;;6.30;99.90;;;;;;4892731;29;20043;-85
2022/11/14 03:58:33;;;;;;;67.53;44.08;;;6.30;99.90;;;;;;4875568;29;20048;-85
2022/11/14 04:00:59;;;;;;;64.88;44.22;;;6.30;99.90;;;;;;4870185;29;20067;-86
2022/11/14 04:03:24;;;;;;;65.50;43.95;;;6.30;99.90;;;;;;4878114;29;20499;-85
2022/11/14 04:06:03;;;;;;;65.40;42.83;;;6.20;99.90;;;;;;4881050;29;20035;-85
2022/11/14 04:08:32;;;;;;;61.72;42.60;;;6.20;99.90;;;;;;4878090;29;20045;-86
2022/11/14 04:10:59;;;;;;;65.60;42.75;;;6.30;99.90;;;;;;4878178;29;20954;-86
2022/11/14 04:13:27;;;;;;;65.60;42.72;;;6.20;99.90;;;;;;4881167;29;20071;-86
2022/11/14 04:16:07;;;;;;;62.30;44.08;;;6.20;99.90;;;;;;4880323;29;20044;-84
2022/11/14 04:18:32;;;;;;;64.50;43.15;;;6.20;99.90;;;;;;4893666;29;20185;-87
2022/11/14 04:20:58;;;;;;;62.85;43.95;;;6.20;99.90;;;;;;4877333;29;20422;-83
2022/11/14 04:23:23;;;;;;;60.13;42.30;;;6.20;99.90;;;;;;4873499;29;20041;-86
2022/11/14 04:26:08;;;;;;;59.85;40.65;;;6.20;99.90;;;;;;4876864;29;20068;-84
2022/11/14 04:28:33;;;;;;;65.50;43.45;;;6.20;99.90;;;;;;4886386;29;20056;-82
2022/11/14 04:30:59;;;;;;;63.35;41.35;;;6.20;99.90;;;;;;4892563;29;20044;-84
2022/11/14 04:33:37;;;;;;;60.50;42.97;;;6.20;99.90;;;;;;4891183;29;20506;-86
2022/11/14 04:36:02;;;;;;;58.75;39.45;;;6.20;99.90;;;;;;4877694;29;20108;-83
2022/11/14 04:38:28;;;;;;;59.75;41.42;;;6.20;99.90;;;;;;4891452;29;20041;-85
2022/11/14 04:40:54;;;;;;;57.78;40.90;;;6.20;99.90;;;;;;4876978;29;20555;-84
2022/11/14 04:43:20;;;;;;;64.80;41.55;;;6.20;99.90;;;;;;4877767;29;20048;-84
2022/11/14 04:45:50;;;;;;;62.72;43.17;;;6.20;99.90;;;;;;4876473;29;20412;-85
2022/11/14 04:48:20;;;;;;;57.63;41.77;;;6.70;99.90;;;;;;4892311;29;20103;-85
2022/11/14 04:50:46;;;;;;;61.65;42.38;;;6.20;99.90;;;;;;4891742;29;20518;-85
2022/11/14 04:53:12;;;;;;;66.90;42.85;;;6.20;99.90;;;;;;4876222;29;20040;-85
2022/11/14 04:55:37;;;;;;;62.63;42.80;;;6.20;99.90;;;;;;4890095;29;20046;-85
2022/11/14 04:58:06;;;;;;;58.75;39.95;;;6.20;99.90;;;;;;4892873;29;20043;-84
2022/11/14 05:00:33;;;;;;;59.92;40.95;;;5.90;99.90;;;;;;4874196;29;20075;-84
2022/11/14 05:03:03;;;;;;;64.22;42.28;;;6.20;99.90;;;;;;4875327;29;20507;-85
2022/11/14 05:05:30;;;;;;;62.47;41.47;;;6.20;99.90;;;;;;4870260;29;20040;-86
2022/11/14 05:07:56;;;;;;;57.95;39.72;;;6.20;99.90;;;;;;4876093;29;20068;-85
2022/11/14 05:10:36;;;;;;;59.40;41.08;;;6.10;99.90;;;;;;4875281;29;20132;-86
2022/11/14 05:13:02;;;;;;;60.40;40.65;;;6.20;99.90;;;;;;4870235;29;20067;-85
2022/11/14 05:15:27;;;;;;;57.72;41.70;;;6.20;99.90;;;;;;4875927;29;20407;-85
2022/11/14 05:17:55;;;;;;;61.72;41.50;;;6.30;99.90;;;;;;4881570;29;20048;-86
2022/11/14 05:24:12;;;;;;;61.05;42.58;;;6.30;99.90;;;;;;4893094;29;20463;-87
2022/11/14 05:27:36;;;;;;;61.95;42.15;;;6.30;99.90;;;;;;4892558;29;20400;-87
2022/11/14 05:30:05;;;;;;;60.78;41.80;;;6.30;99.90;;;;;;4887275;29;20120;-86
2022/11/14 05:32:31;;;;;;;62.17;40.88;;;6.20;99.90;;;;;;4876449;29;20028;-84
2022/11/14 05:34:58;;;;;;;62.47;42.00;;;6.30;99.90;;;;;;4890330;29;20045;-84
2022/11/14 05:37:29;;;;;;;57.10;40.60;;;6.20;99.90;;;;;;4872486;29;20083;-85
2022/11/14 05:39:55;;;;;;;61.40;41.25;;;6.20;99.90;;;;;;4869847;29;20771;-86
2022/11/14 05:42:21;;;;;;;67.30;41.78;;;6.20;99.90;;;;;;4874140;29;20040;-85
2022/11/14 05:44:46;;;;;;;65.50;43.33;;;6.30;99.90;;;;;;4878486;29;20499;-86
2022/11/14 05:47:30;;;;;;;61.20;42.00;;;6.90;99.90;;;;;;4880990;29;20037;-86
2022/11/14 05:49:56;;;;;;;64.20;43.25;;;6.20;99.90;;;;;;4889608;29;20536;-83
2022/11/14 05:52:21;;;;;;;62.45;43.45;;;6.20;99.90;;;;;;4891235;29;20041;-84
2022/11/14 05:54:47;;;;;;;62.05;42.53;;;6.20;99.90;;;;;;4892265;29;20041;-86
2022/11/14 05:57:13;;;;;;;66.60;42.20;;;6.20;99.90;;;;;;4876776;29;20040;-85
2022/11/14 05:59:38;;;;;;;66.50;42.92;;;6.20;99.90;;;;;;4874903;29;20044;-84
2022/11/14 06:02:12;;;;;;;63.58;43.97;;;6.40;99.90;;;;;;4890413;29;20576;-86
2022/11/14 06:04:37;;;;;;;64.05;42.70;;;6.10;99.90;;;;;;4887070;29;20089;-85
2022/11/14 06:07:03;;;;;;;66.43;43.20;;;6.10;99.90;;;;;;4874667;29;20048;-85
2022/11/14 06:09:29;;;;;;;65.05;43.78;;;6.10;99.90;;;;;;4882685;29;20049;-84
2022/11/14 06:12:19;;;;;;;66.53;43.30;;;6.20;99.90;;;;;;4870262;29;20092;-86
2022/11/14 06:14:44;;;;;;;62.03;42.50;;;6.10;99.90;;;;;;4891583;29;20055;-84
2022/11/14 06:17:20;;;;;;;65.50;43.35;;;6.10;99.90;;;;;;4873791;29;20499;-86
2022/11/14 06:19:47;;;;;;;67.57;41.97;;;6.30;99.90;;;;;;4874500;29;20041;-88
2022/11/14 06:22:15;;;;;;;67.18;43.25;;;6.10;99.90;;;;;;4872978;29;20052;-84
2022/11/14 06:24:41;;;;;;;65.60;42.08;;;6.10;99.90;;;;;;4887909;29;20044;-82
2022/11/14 06:27:06;;;;;;;64.95;42.53;;;6.00;99.90;;;;;;4875411;29;20132;-84
2022/11/14 06:29:32;;;;;;;68.32;42.78;;;6.00;99.90;;;;;;4872253;29;20155;-84
2022/11/14 06:31:59;;;;;;;69.20;44.75;;;6.10;99.90;;;;;;4873542;29;20532;-84
2022/11/14 06:34:24;;;;;;;67.88;43.65;;;5.90;99.90;;;;;;4877111;29;20040;-84
2022/11/14 06:36:50;;;;;;;66.75;43.72;;;6.00;99.90;;;;;;4877318;29;20042;-84
2022/11/14 06:39:15;;;;;;;69.07;46.13;;;6.00;99.90;;;;;;4875488;29;20411;-85
2022/11/14 06:41:41;;;;;;;65.13;42.35;;;6.00;99.90;;;;;;4875669;29;20046;-84
2022/11/14 06:44:07;;;;;;;69.10;44.28;;;6.00;99.90;;;;;;4892250;29;20059;-84
2022/11/14 06:46:33;;;;;;;65.97;45.60;;;6.10;99.90;;;;;;4887279;29;20044;-86
2022/11/14 06:48:58;;;;;;;63.95;41.90;;;6.00;99.90;;;;;;4874543;29;20043;-85
2022/11/14 06:51:24;;;;;;;70.47;43.17;;;6.00;99.90;;;;;;4882227;29;20049;-85
2022/11/14 06:53:50;;;;;;;64.90;41.72;;;6.00;99.90;;;;;;4877722;29;20043;-84
2022/11/14 06:56:16;;;;;;;66.72;42.13;;;6.00;99.90;;;;;;4891560;29;20048;-85
2022/11/14 06:58:48;;;;;;;64.32;42.40;;;6.00;99.90;;;;;;4876829;29;20079;-83
2022/11/14 07:01:19;;;;;;;69.50;42.38;;;5.80;99.90;;;;;;4883053;29;20049;-85
2022/11/14 07:03:44;;;;;;;67.50;42.60;;;5.90;99.90;;;;;;4889786;29;20040;-85
2022/11/14 07:06:16;;;;;;;72.85;43.88;;;5.90;99.90;;;;;;4873338;29;20068;-85
2022/11/14 07:08:58;;;;;;;71.88;43.15;;;5.90;99.90;;;;;;4879219;29;20081;-84
2022/11/14 07:11:28;;;;;;;68.63;41.88;;;5.80;99.90;;;;;;4879240;29;20047;-87
2022/11/14 07:13:55;;;;;;;70.43;43.92;;;5.80;99.90;;;;;;4872875;29;20036;-84
2022/11/14 07:16:30;;;;;;;74.22;45.20;;;5.70;99.90;;;;;;4894948;29;20045;-83
2022/11/14 07:18:57;;;;;;;74.55;44.53;;;5.70;99.90;;;;;;4887506;29;20041;-83
2022/11/14 07:21:24;;;;;;;71.75;41.88;;;5.70;99.90;;;;;;4896992;29;20100;-85
2022/11/14 07:23:50;;;;;;;75.28;44.60;;;6.70;99.90;;;;;;4891618;29;20033;-85
2022/11/14 07:26:19;;;;;;;76.30;45.47;;;5.60;99.90;;;;;;4894850;29;20511;-86
2022/11/14 07:28:49;;;;;;;76.53;43.95;;;6.10;99.90;;;;;;4892503;29;20036;-86
2022/11/14 07:31:18;;;;;;;76.68;44.95;;;5.80;99.90;;;;;;4877769;29;20040;-87
2022/11/14 07:33:44;;;;;;;73.05;44.90;;;5.60;99.90;;;;;;4879128;29;20117;-88
2022/11/14 07:36:13;;;;;;;80.05;46.05;;;5.60;99.90;;;;;;4892747;29;20077;-88
2022/11/14 07:38:41;;;;;;;75.40;46.78;;;5.50;99.90;;;;;;4891303;29;20075;-88
2022/11/14 07:41:09;;;;;;;80.50;46.38;;;5.80;99.90;;;;;;4894486;29;20040;-87
2022/11/14 07:43:35;;;;;;;83.97;48.00;;;6.40;99.90;;;;;;4893847;29;20410;-87
2022/11/14 07:46:06;;;;;;;87.07;49.17;;;5.60;99.90;;;;;;4892676;29;20125;-88
2022/11/14 07:48:33;;;;;;;87.40;49.28;;;5.70;99.90;;;;;;4892390;29;20132;-89
2022/11/14 07:51:02;;;;;;;84.00;49.38;;;5.80;99.90;;;;;;4891267;29;20055;-88
2022/11/14 07:53:28;;;;;;;78.90;47.60;;;5.90;99.90;;;;;;4905156;29;20037;-87
2022/11/14 07:55:55;;;;;;;81.20;47.60;;;5.70;99.90;;;;;;4890043;29;20074;-87
2022/11/14 07:58:20;;;;;;;80.80;46.38;;;5.70;99.90;;;;;;4874898;29;20069;-87
2022/11/14 08:00:46;;;;;;;76.57;47.65;;;5.70;99.90;;;;;;4890573;29;20032;-87
2022/11/14 08:03:12;;;;;;;77.15;44.97;;;5.70;99.90;;;;;;4872821;29;20107;-88
2022/11/14 08:05:40;;;;;;;78.40;45.38;;;5.70;99.90;;;;;;4895222;29;20044;-87
2022/11/14 08:08:05;;;;;;;74.30;45.67;;;5.70;99.90;;;;;;4894783;29;20052;-88
2022/11/14 08:10:31;;;;;;;72.70;43.95;;;5.80;99.90;;;;;;4894465;29;20403;-88
2022/11/14 08:13:02;;;;;;;72.10;43.42;;;5.80;99.90;;;;;;4893480;29;20051;-88
2022/11/14 08:15:28;;;;;;;70.47;44.65;;;5.80;99.90;;;;;;4879680;29;20064;-87
2022/11/14 08:18:01;;;;;;;72.63;45.20;;;5.90;99.90;;;;;;4880742;29;20044;-88
2022/11/14 08:20:27;;;;;;;72.05;45.10;;;5.80;99.90;;;;;;4890439;29;21333;-87
2022/11/14 08:23:03;;;;;;;74.85;44.97;;;5.90;99.90;;;;;;4894297;29;20131;-87
2022/11/14 08:25:29;;;;;;;67.28;42.50;;;6.00;99.90;;;;;;4889367;29;20041;-88
2022/11/14 08:27:57;;;;;;;70.60;43.67;;;6.00;99.90;;;;;;4896173;29;20036;-87
2022/11/14 08:30:23;;;;;;;70.55;41.97;;;5.90;99.90;;;;;;4893599;29;20044;-88
2022/11/14 08:32:48;;;;;;;74.05;45.83;;;6.00;99.90;;;;;;4877159;29;20048;-87
2022/11/14 08:35:14;;;;;;;68.35;44.63;;;6.00;99.90;;;;;;4894402;29;20068;-88
2022/11/14 08:37:45;;;;;;;68.85;43.72;;;6.10;99.90;;;;;;4871396;29;20130;-88
2022/11/14 08:47:33;;;;;;;61.90;40.72;;;6.20;99.90;;;;;;4891565;29;20064;-87
2022/11/14 08:49:59;;;;;;;63.17;41.58;;;6.20;99.90;;;;;;4873160;29;20123;-86
2022/11/14 08:52:24;;;;;;;61.72;41.33;;;6.30;99.90;;;;;;4890442;29;20052;-84
2022/11/14 08:54:50;;;;;;;62.25;40.50;;;6.30;99.90;;;;;;4876814;29;20040;-86
2022/11/14 08:57:37;;;;;;;58.58;39.65;;;6.30;99.90;;;;;;4871008;29;20047;-85
2022/11/14 09:00:03;;;;;;;57.85;38.30;;;6.30;99.90;;;;;;4887726;29;20049;-87
2022/11/14 09:02:29;;;;;;;57.28;39.00;;;6.30;99.90;;;;;;4876485;29;20041;-86
2022/11/14 09:04:56;;;;;;;55.10;37.70;;;6.40;99.90;;;;;;4871390;29;20048;-84
2022/11/14 09:07:22;;;;;;;59.17;39.38;;;6.40;99.90;;;;;;4871305;29;20117;-85
2022/11/14 09:09:47;;;;;;;53.78;37.25;;;6.40;99.90;;;;;;4888267;29;20557;-85
2022/11/14 09:12:13;;;;;;;54.92;38.92;;;6.30;99.90;;;;;;4868220;29;20036;-84
2022/11/14 09:14:39;;;;;;;55.05;37.88;;;6.40;99.90;;;;;;4889774;29;20472;-84
2022/11/14 09:17:04;;;;;;;55.45;37.63;;;6.40;99.90;;;;;;4889714;29;20049;-83
2022/11/14 09:19:30;;;;;;;57.85;38.38;;;6.90;99.90;;;;;;4874375;29;20044;-84
2022/11/14 09:21:55;;;;;;;50.50;34.65;;;6.50;99.90;;;;;;4903727;29;20064;-84
2022/11/14 09:24:21;;;;;;;54.83;37.42;;;6.50;99.90;;;;;;4874729;29;20052;-84
2022/11/14 09:26:50;;;;;;;51.70;36.00;;;6.50;99.90;;;;;;4870193;29;20060;-84
2022/11/14 09:29:17;;;;;;;53.03;36.35;;;6.60;99.90;;;;;;4884395;29;20136;-85
2022/11/14 09:31:43;;;;;;;51.67;35.60;;;6.60;99.90;;;;;;4888027;29;20100;-83
2022/11/14 09:34:09;;;;;;;50.17;35.58;;;6.70;99.90;;;;;;4873786;29;20044;-83
2022/11/14 09:36:34;;;;;;;51.58;36.30;;;6.70;99.90;;;;;;4873997;29;20044;-84
2022/11/14 09:39:00;;;;;;;51.55;35.50;;;6.80;99.90;;;;;;4885290;29;20488;-84
2022/11/14 09:41:40;;;;;;;51.30;34.65;;;6.70;99.90;;;;;;4874822;29;20071;-85
2022/11/14 09:44:06;;;;;;;51.80;36.28;;;6.80;99.90;;;;;;4872372;29;20060;-84
2022/11/14 09:46:43;;;;;;;50.15;35.63;;;6.90;99.90;;;;;;4873912;29;20547;-85
2022/11/14 09:49:32;;;;;;;47.30;34.80;;;6.90;99.90;;;;;;4887847;29;20040;-85
2022/11/14 09:52:19;;;;;;;48.67;34.40;;;6.90;99.90;;;;;;4886135;29;20071;-84
2022/11/14 09:55:12;;;;;;;48.03;33.40;;;7.00;99.90;;;;;;4871162;29;20197;-84
2022/11/14 09:57:40;;;;;;;48.17;34.63;;;7.00;99.90;;;;;;4873499;29;20056;-84
2022/11/14 10:00:42;;;;;;;47.80;34.03;;;7.00;99.90;;;;;;4884220;29;20040;-84
2022/11/14 10:03:43;;;;;;;50.47;34.42;;;7.10;99.90;;;;;;4855545;29;20041;-84
2022/11/14 10:06:43;;;;;;;50.45;34.50;;;7.20;99.90;;;;;;4868660;29;20051;-83
2022/11/14 10:09:24;;;;;;;45.13;34.22;;;7.20;99.90;;;;;;4866711;29;20059;-84
2022/11/14 10:11:58;;;;;;;47.58;33.70;;;7.30;99.90;;;;;;4858954;29;20408;-84
2022/11/14 10:14:54;;;;;;;42.40;31.80;;;7.50;99.90;;;;;;4871752;29;20340;-84
2022/11/14 10:17:47;;;;;;;42.78;31.02;;;7.40;99.90;;;;;;4881214;29;20048;-83
2022/11/14 10:20:56;;;;;;;45.15;32.45;;;7.40;99.90;;;;;;4854801;29;20057;-83
2022/11/14 10:23:28;;;;;;;41.08;31.08;;;7.30;99.90;;;;;;4870850;29;20064;-83
2022/11/14 10:26:04;;;;;;;40.45;29.80;;;7.40;99.90;;;;;;4876334;29;20479;-83
2022/11/14 10:28:40;;;;;;;42.08;32.20;;;7.40;99.90;;;;;;4875939;29;20487;-84
2022/11/14 10:31:22;;;;;;;40.42;30.38;;;7.50;99.90;;;;;;4876496;29;20044;-84
2022/11/14 10:34:10;;;;;;;41.20;30.65;;;7.50;99.90;;;;;;4859593;29;20185;-83
2022/11/14 10:36:58;;;;;;;39.85;30.25;;;7.50;99.90;;;;;;4856246;29;20048;-84
2022/11/14 10:39:49;;;;;;;42.72;30.90;;;7.60;99.90;;;;;;4856852;29;20045;-83
2022/11/14 10:42:28;;;;;;;37.47;28.85;;;7.60;99.90;;;;;;4875972;29;21968;-84
2022/11/14 10:45:03;;;;;;;39.38;30.52;;;7.60;99.90;;;;;;4885277;29;20051;-84
2022/11/14 10:47:37;;;;;;;40.10;28.97;;;7.60;99.90;;;;;;4871426;29;20092;-84
2022/11/14 10:50:55;;;;;;;40.40;30.35;;;7.60;99.90;;;;;;4883753;29;20072;-83
2022/11/14 10:53:35;;;;;;;39.58;30.35;;;7.70;99.90;;;;;;4859538;29;20053;-84
2022/11/14 10:56:00;;;;;;;38.60;29.83;;;7.70;99.90;;;;;;4857809;29;20052;-84
2022/11/14 10:58:26;;;;;;;37.17;28.20;;;7.70;99.90;;;;;;4875809;29;20051;-83
2022/11/14 11:00:51;;;;;;;39.83;29.92;;;7.90;99.90;;;;;;4859157;29;20043;-84
2022/11/14 11:03:17;;;;;;;39.75;29.52;;;7.80;99.90;;;;;;4873793;29;20960;-84
2022/11/14 11:05:46;;;;;;;38.35;29.42;;;8.10;99.90;;;;;;4872571;29;20079;-83
2022/11/14 11:13:58;;;;;;;40.63;29.90;;;8.30;99.90;;;;;;4883598;29;20052;-85
2022/11/14 11:16:25;;;;;;;37.35;28.73;;;8.30;99.90;;;;;;4890804;29;20128;-85
2022/11/14 11:18:51;;;;;;;35.35;28.73;;;8.60;99.90;;;;;;4890169;29;20052;-86
2022/11/14 11:21:52;;;;;;;35.35;27.73;;;8.40;99.90;;;;;;4889663;29;20048;-86
2022/11/14 11:25:29;;;;;;;34.75;27.02;;;8.50;99.90;;;;;;4892799;29;20055;-86
2022/11/14 11:28:36;;;;;;;30.77;24.40;;;8.70;99.90;;;;;;4896693;29;20056;-87
2022/11/14 11:31:07;;;;;;;30.85;24.60;;;8.60;99.90;;;;;;4892074;29;21111;-87
2022/11/14 11:33:53;;;;;;;30.30;25.95;;;8.70;99.90;;;;;;4875126;29;20053;-87
2022/11/14 11:36:59;;;;;;;31.85;25.10;;;8.80;99.90;;;;;;4891317;29;20045;-89
2022/11/14 11:40:19;;;;;;;31.73;24.70;;;8.80;99.90;;;;;;4891304;29;20403;-88
2022/11/14 11:47:01;;;;;;;31.05;25.23;;;8.80;99.90;;;;;;4887166;29;20587;-88
2022/11/14 11:50:17;;;;;;;32.05;26.05;;;8.80;99.90;;;;;;4864789;29;20136;-87
2022/11/14 11:53:04;;;;;;;30.42;24.63;;;8.80;99.90;;;;;;4891192;29;20107;-87
2022/11/14 11:55:31;;;;;;;;;;;8.80;99.90;;;;;;4893893;29;20050;-87
2022/11/14 11:58:04;;;;;;;34.03;26.73;;;8.90;99.90;;;;;;4877473;29;19919;-88
2022/11/14 12:00:30;;;;;;;31.63;26.02;;;8.90;99.90;;;;;;4879558;29;20040;-88
2022/11/14 12:02:57;;;;;;;31.60;24.90;;;8.90;99.90;;;;;;4876425;29;20048;-88
2022/11/14 12:05:46;;;;;;;30.58;24.98;;;8.90;99.90;;;;;;4890428;29;20060;-89
2022/11/14 12:08:27;;;;;;;30.65;25.15;;;8.90;99.90;;;;;;4891605;29;20516;-89
2022/11/14 12:10:53;;;;;;;33.28;26.33;;;8.80;99.90;;;;;;4893465;29;20616;-88
2022/11/14 12:14:06;;;;;;;;;;;;;;;;;;;;;
2022/11/14 12:16:45;;;;;;;32.88;25.77;;;8.90;99.90;;;;;;4893795;29;20108;-88
2022/11/14 12:19:46;;;;;;;32.35;24.85;;;8.90;99.90;;;;;;4889712;29;20080;-89
2022/11/14 12:22:25;;;;;;;33.60;24.48;;;9.20;99.90;;;;;;4889685;29;20056;-88
2022/11/14 12:25:19;;;;;;;29.40;23.63;;;8.90;99.90;;;;;;4893053;29;20143;-89
2022/11/14 12:28:22;;;;;;;31.10;25.17;;;8.90;99.90;;;;;;4894111;29;20145;-87
2022/11/14 12:30:52;;;;;;;30.45;23.90;;;9.80;99.90;;;;;;4893213;29;20036;-88
2022/11/14 12:33:42;;;;;;;29.20;23.20;;;8.90;99.90;;;;;;4891066;29;20045;-88
2022/11/14 12:36:11;;;;;;;31.20;24.10;;;8.90;99.90;;;;;;4888140;29;20052;-89
2022/11/14 12:38:58;;;;;;;29.08;23.73;;;8.90;99.90;;;;;;4893411;29;20045;-89
2022/11/14 12:41:46;;;;;;;28.15;23.65;;;8.90;99.90;;;;;;4897843;29;20096;-88
2022/11/14 12:44:38;;;;;;;32.75;22.60;;;9.00;99.90;;;;;;4870917;29;20056;-87
2022/11/14 12:47:04;;;;;;;30.15;21.83;;;8.90;99.90;;;;;;4868439;29;20044;-88
2022/11/14 12:49:55;;;;;;;31.40;21.80;;;9.80;99.90;;;;;;4894115;29;20052;-87
2022/11/14 12:52:39;;;;;;;27.92;21.40;;;9.00;99.90;;;;;;4889140;29;20096;-85
2022/11/14 12:55:25;;;;;;;26.88;21.73;;;9.00;99.90;;;;;;4885395;29;20052;-86
2022/11/14 12:58:12;;;;;;;25.93;22.27;;;9.00;99.90;;;;;;4873879;29;20131;-86
2022/11/14 13:00:44;;;;;;;23.45;20.25;;;9.00;99.90;;;;;;4890333;29;20308;-87
2022/11/14 13:03:33;;;;;;;24.10;19.83;;;9.10;99.90;;;;;;4884665;29;20501;-86
2022/11/14 13:06:06;;;;;;;23.50;19.90;;;9.00;99.90;;;;;;4890900;29;20049;-86
2022/11/14 13:08:41;;;;;;;24.80;21.42;;;9.00;99.90;;;;;;4886462;29;20044;-86
2022/11/14 13:21:44;;;;;;;23.20;18.73;;;9.10;99.90;;;;;;4888122;29;20132;-86
2022/11/14 13:23:26;;;;;;;;;;;9.10;99.90;;;;;;4887105;29;20055;-86
2022/11/14 13:26:13;;;;;;;23.40;17.38;;;9.20;99.90;;;;;;4888794;29;20014;-87
2022/11/14 13:28:50;;;;;;;23.08;18.98;;;9.10;99.90;;;;;;4872511;29;20049;-87
2022/11/14 13:31:15;;;;;;;24.08;19.23;;;9.20;99.90;;;;;;4887951;29;20112;-86
2022/11/14 13:33:58;;;;;;;24.48;19.38;;;9.10;99.90;;;;;;4890126;29;20487;-87
2022/11/14 13:37:07;;;;;;;21.95;18.00;;;9.10;99.90;;;;;;4876587;29;20037;-87
2022/11/14 13:39:55;;;;;;;22.08;18.40;;;9.10;99.90;;;;;;4885189;29;20066;-86
2022/11/14 13:42:46;;;;;;;20.85;18.30;;;9.10;99.90;;;;;;4887202;29;20049;-86